Time;durP1;ratioP1;P1;durP2;ratioP2;P2;SDS_P1;SDS_P2;PMS_P1;PMS_P2;Temp;Humidity;BMP_temperature;BMP_pressure;BME280_temperature;BME280_humidity;BME280_pressure;Samples;Min_cycle;Max_cycle;Signal;HPM_P1;HPM_P2
2022/01/25 00:10:39;;;;;;;7.80;6.60;;;;;;;2.27;94.92;100640.22;1816759;77;21058;-68
2022/01/25 00:24:16;;;;;;;13.32;8.05;;;;;;;2.28;94.91;100630.34;1818844;77;21998;-69
2022/01/25 00:26:31;;;;;;;9.65;6.92;;;;;;;2.31;95.00;100611.00;1813389;77;21082;-68
2022/01/25 00:29:05;;;;;;;9.98;7.87;;;;;;;2.32;94.99;100618.30;1815329;78;21240;-68
2022/01/25 00:31:24;;;;;;;11.63;7.60;;;;;;;2.37;94.83;100614.87;1814269;77;21039;-69
2022/01/25 00:33:51;;;;;;;8.63;7.15;;;;;;;2.42;94.64;100611.87;1813151;77;21265;-68
2022/01/25 00:36:22;;;;;;;9.70;7.50;;;;;;;2.44;94.62;100608.88;1809679;78;21091;-68
2022/01/25 00:38:50;;;;;;;11.78;7.35;;;;;;;2.45;94.63;100613.59;1816456;78;21521;-69
2022/01/25 00:41:19;;;;;;;8.33;6.70;;;;;;;2.45;94.63;100614.44;1812625;77;21075;-68
2022/01/25 00:43:46;;;;;;;10.45;7.30;;;;;;;2.43;94.74;100608.42;1813118;78;21089;-68
2022/01/25 00:46:15;;;;;;;11.25;7.70;;;;;;;2.42;94.77;100601.56;1816928;77;21146;-68
2022/01/25 00:48:46;;;;;;;11.20;7.72;;;;;;;2.48;94.61;100607.58;1812670;77;21451;-68
2022/01/25 00:54:14;;;;;;;13.15;8.75;;;;;;;2.46;94.60;100608.45;1812547;78;21444;-68
2022/01/25 00:56:43;;;;;;;15.32;8.25;;;;;;;2.49;94.61;100600.27;1811749;78;21505;-68
2022/01/25 00:59:15;;;;;;;10.58;7.80;;;;;;;2.44;94.73;100610.16;1810555;78;21272;-68
2022/01/25 01:01:43;;;;;;;13.20;7.90;;;;;;;2.46;94.74;100603.30;1819180;77;21228;-69
2022/01/25 01:04:10;;;;;;;10.20;8.43;;;;;;;2.45;94.70;100600.27;1806038;77;21351;-68
2022/01/25 01:06:38;;;;;;;11.53;8.38;;;;;;;2.45;94.69;100604.13;1811600;77;26635;-68
2022/01/25 01:09:08;;;;;;;11.40;8.20;;;;;;;2.46;94.66;100607.16;1813394;77;21735;-68
2022/01/25 01:11:39;;;;;;;13.03;9.00;;;;;;;2.44;94.75;100612.73;1816807;77;21151;-68
2022/01/25 01:14:12;;;;;;;13.62;9.03;;;;;;;2.42;94.84;100614.45;1813500;77;21082;-69
2022/01/25 01:16:50;;;;;;;12.50;9.40;;;;;;;2.48;94.67;100617.89;1807824;77;21168;-69
2022/01/25 01:33:03;;;;;;;11.78;9.63;;;;;;;2.40;94.93;100595.53;1816349;77;21106;-69
2022/01/25 01:35:51;;;;;;;13.05;9.20;;;;;;;2.38;94.92;100586.97;1809941;77;22322;-68
2022/01/25 01:40:59;;;;;;;14.47;9.18;;;;;;;2.41;94.94;100602.43;1816723;77;21122;-68
2022/01/25 01:43:26;;;;;;;14.33;9.98;;;;;;;2.42;94.95;100614.45;1816208;76;21043;-69
2022/01/25 01:48:26;;;;;;;15.00;9.83;;;;;;;2.36;95.07;100601.56;1813065;77;21663;-69
2022/01/25 01:50:41;;;;;;;14.83;10.08;;;;;;;2.38;95.05;100592.13;1819789;76;21055;-69
2022/01/25 01:53:08;;;;;;;10.43;8.08;;;;;;;2.39;95.11;100586.09;1820366;77;21055;-69
2022/01/25 01:55:36;;;;;;;15.85;9.83;;;;;;;2.40;95.42;100589.53;1824402;77;21052;-69
2022/01/25 01:58:04;;;;;;;14.15;10.13;;;;;;;2.37;95.25;100583.94;1818306;77;21093;-69
2022/01/25 02:00:39;;;;;;;12.75;9.60;;;;;;;2.44;95.13;100594.69;1822166;77;21055;-69
2022/01/25 02:03:06;;;;;;;11.33;8.48;;;;;;;2.48;95.01;100584.38;1815819;77;21611;-68
2022/01/25 02:05:34;;;;;;;11.85;8.90;;;;;;;2.49;95.14;100592.09;1824351;77;21059;-69
2022/01/25 02:08:00;;;;;;;;;;;;;;;2.50;94.88;100579.66;1821587;77;21617;-69
2022/01/25 02:10:27;;;;;;;14.05;9.53;;;;;;;2.55;94.77;100583.50;1820207;77;21053;-69
2022/01/25 02:12:54;;;;;;;12.80;9.35;;;;;;;2.55;94.81;100582.20;1798091;77;21000;-68
2022/01/25 02:15:25;;;;;;;15.23;8.88;;;;;;;2.52;94.84;100580.92;1816677;76;21169;-69
2022/01/25 02:22:21;;;;;;;11.10;8.65;;;;;;;2.52;94.91;100575.77;1820219;77;22088;-68
2022/01/25 02:23:21;;;;;;;13.10;8.45;;;;;;;2.53;95.03;100557.73;1788113;78;22325;-69
2022/01/25 02:25:55;;;;;;;13.65;8.73;;;;;;;2.54;95.03;100559.88;1781254;79;21238;-68
2022/01/25 02:28:25;;;;;;;11.25;7.83;;;;;;;2.54;95.09;100553.44;1776987;78;21064;-68
2022/01/25 02:30:52;;;;;;;14.35;8.53;;;;;;;2.54;95.13;100550.85;1773932;78;21084;-68
2022/01/25 02:33:19;;;;;;;12.37;8.33;;;;;;;2.55;95.04;100564.16;1773464;79;21345;-69
2022/01/25 02:35:46;;;;;;;11.68;8.08;;;;;;;2.55;95.14;100564.16;1778120;78;21148;-68
2022/01/25 02:38:16;;;;;;;10.65;7.97;;;;;;;2.56;95.14;100559.45;1776083;78;21040;-68
2022/01/25 02:40:43;;;;;;;11.28;7.70;;;;;;;2.59;95.15;100562.02;1776546;78;21001;-69
2022/01/25 02:43:09;;;;;;;10.45;7.08;;;;;;;2.59;95.18;100537.53;1779086;78;20985;-68
2022/01/25 02:45:37;;;;;;;10.38;7.10;;;;;;;2.62;95.25;100543.97;1773248;80;21084;-69
2022/01/25 02:50:50;;;;;;;7.75;6.50;;;;;;;2.62;95.36;100533.66;1772858;78;20503;-69
2022/01/25 02:53:17;;;;;;;9.80;7.33;;;;;;;2.60;95.42;100552.13;1772449;80;21152;-69
2022/01/25 02:55:44;;;;;;;9.45;6.50;;;;;;;2.62;95.43;100549.13;1768982;79;21142;-68
2022/01/25 02:58:10;;;;;;;10.27;7.93;;;;;;;2.62;95.42;100545.26;1771532;80;21092;-68
2022/01/25 03:00:37;;;;;;;9.78;7.37;;;;;;;2.62;95.41;100546.55;1771176;80;22316;-68
2022/01/25 03:03:03;;;;;;;10.35;7.28;;;;;;;2.65;95.44;100541.38;1771088;80;21729;-68
2022/01/25 03:05:31;;;;;;;8.10;6.70;;;;;;;2.65;95.52;100533.65;1770996;78;20977;-68
2022/01/25 03:07:57;;;;;;;10.03;7.35;;;;;;;2.66;95.52;100535.35;1768092;78;20978;-68
2022/01/25 03:10:36;;;;;;;10.05;7.35;;;;;;;2.67;95.55;100526.78;1775242;79;21524;-69
2022/01/25 03:13:06;;;;;;;9.25;6.22;;;;;;;2.67;95.58;100521.63;1770077;79;21993;-68
2022/01/25 03:15:55;;;;;;;10.03;6.42;;;;;;;2.68;95.60;100521.59;1769579;80;21159;-69
2022/01/25 03:18:23;;;;;;;7.75;6.03;;;;;;;2.68;95.52;100531.06;1768904;78;21087;-69
2022/01/25 03:20:51;;;;;;;8.75;5.90;;;;;;;2.65;95.79;100538.80;1765771;78;21099;-69
2022/01/25 03:23:19;;;;;;;9.35;6.08;;;;;;;2.66;95.82;100537.94;1769267;80;21534;-68
2022/01/25 03:25:47;;;;;;;6.47;5.20;;;;;;;2.67;95.96;100539.67;1772448;79;21085;-68
2022/01/25 03:28:14;;;;;;;10.08;6.08;;;;;;;2.68;96.02;100528.48;1774028;78;21473;-68
2022/01/25 03:30:40;;;;;;;;;;;;;;;2.69;95.97;100525.06;1774904;79;21144;-68
2022/01/25 03:33:07;;;;;;;9.15;5.45;;;;;;;2.71;95.99;100533.62;1772758;78;20187;-68
2022/01/25 03:35:34;;;;;;;7.33;5.47;;;;;;;2.70;96.25;100535.80;1773859;80;21497;-68
2022/01/25 03:38:00;;;;;;;5.83;4.45;;;;;;;2.72;96.15;100541.81;1769086;79;21963;-68
2022/01/25 03:40:27;;;;;;;6.00;4.80;;;;;;;2.73;96.10;100531.91;1766207;79;21758;-69
2022/01/25 03:42:55;;;;;;;8.47;4.93;;;;;;;2.73;96.18;100524.17;1771039;79;21600;-69
2022/01/25 03:45:29;;;;;;;6.58;4.80;;;;;;;2.74;96.22;100528.46;1769884;80;21285;-68
2022/01/25 03:50:36;;;;;;;6.95;5.20;;;;;;;2.75;96.16;100527.63;1771921;80;21589;-69
2022/01/25 03:53:02;;;;;;;9.88;5.67;;;;;;;2.75;96.19;100527.63;1771657;79;21055;-69
2022/01/25 03:55:29;;;;;;;9.45;5.08;;;;;;;2.78;96.12;100516.44;1767582;80;21067;-69
2022/01/25 03:57:55;;;;;;;6.92;4.75;;;;;;;2.79;96.12;100516.42;1767597;79;21067;-69
2022/01/25 04:00:22;;;;;;;5.72;4.67;;;;;;;2.82;96.25;100506.09;1767700;79;21405;-69
2022/01/25 04:02:54;;;;;;;6.37;4.47;;;;;;;2.79;96.38;100509.97;1768331;80;22383;-69
2022/01/25 04:05:35;;;;;;;6.53;4.12;;;;;;;2.82;96.31;100513.83;1772302;80;21017;-69
2022/01/25 04:07:50;;;;;;;7.05;4.75;;;;;;;2.81;96.37;100509.55;1765201;79;21452;-68
2022/01/25 04:10:19;;;;;;;7.35;4.85;;;;;;;2.82;96.62;100503.52;1763414;79;21107;-68
2022/01/25 04:12:47;;;;;;;7.17;4.30;;;;;;;2.84;96.37;100492.77;1768376;80;21399;-69
2022/01/25 04:15:14;;;;;;;5.65;4.12;;;;;;;2.82;96.47;100497.06;1766015;79;21428;-69
2022/01/25 04:17:45;;;;;;;6.40;3.35;;;;;;;2.83;96.78;100502.67;1764741;80;21057;-68
2022/01/25 04:25:22;;;;;;;7.78;4.83;;;;;;;2.84;96.70;100499.22;1772016;80;21662;-69
2022/01/25 04:27:52;;;;;;;6.75;4.28;;;;;;;2.86;96.89;100492.34;1773238;79;21209;-69
2022/01/25 04:30:19;;;;;;;9.70;4.85;;;;;;;2.88;96.55;100490.59;1762280;79;21720;-69
2022/01/25 04:32:52;;;;;;;7.55;4.83;;;;;;;2.89;96.47;100507.80;1774624;79;21230;-69
2022/01/25 04:52:12;;;;;;;4.42;3.70;;;;;;;2.89;97.35;100502.64;1799465;77;23323;-68
2022/01/25 04:54:48;;;;;;;3.98;3.52;;;;;;;2.85;97.89;100485.44;1746356;80;21043;-67
2022/01/25 04:57:34;;;;;;;4.25;3.27;;;;;;;2.84;97.43;100494.05;1744891;80;21248;-69
2022/01/25 05:00:02;;;;;;;4.95;3.58;;;;;;;2.84;97.35;100483.73;1749073;80;21399;-69
2022/01/25 05:04:57;;;;;;;4.33;3.55;;;;;;;2.87;97.00;100469.53;1727056;81;21542;-69
2022/01/25 05:07:30;;;;;;;4.08;3.52;;;;;;;2.90;96.98;100478.98;1715511;81;21634;-69
2022/01/25 05:09:49;;;;;;;5.58;3.33;;;;;;;2.94;97.06;100475.95;1740809;81;21680;-69
2022/01/25 05:12:16;;;;;;;5.17;3.35;;;;;;;2.92;97.12;100477.27;1738470;81;22063;-69
2022/01/25 05:15:05;;;;;;;5.35;3.62;;;;;;;2.91;97.46;100484.16;1744650;80;22427;-69
2022/01/25 05:17:36;;;;;;;6.60;3.65;;;;;;;2.91;97.16;100485.45;1757695;80;21015;-68
2022/01/25 05:22:42;;;;;;;4.75;3.58;;;;;;;2.90;97.12;100485.44;1745627;80;21131;-69
2022/01/25 05:25:09;;;;;;;8.23;3.47;;;;;;;2.94;97.10;100481.12;1727808;82;21194;-68
2022/01/25 05:27:36;;;;;;;4.58;3.08;;;;;;;2.93;97.25;100474.25;1727765;82;21136;-69
2022/01/25 05:30:04;;;;;;;5.58;3.75;;;;;;;2.89;97.37;100476.84;1721780;81;21642;-68
2022/01/25 05:32:32;;;;;;;5.65;4.22;;;;;;;2.90;97.83;100475.97;1721457;81;21478;-69
2022/01/25 05:34:59;;;;;;;6.00;3.90;;;;;;;2.90;97.39;100457.91;1719629;81;21173;-68
2022/01/25 05:37:26;;;;;;;5.35;3.25;;;;;;;2.91;97.47;100451.91;1717362;81;21201;-69
2022/01/25 05:39:53;;;;;;;5.22;3.62;;;;;;;2.94;97.37;100451.45;1721951;81;21422;-69
2022/01/25 05:45:39;;;;;;;4.83;3.58;;;;;;;2.99;97.35;100445.84;1720692;81;21348;-69
2022/01/25 05:47:34;;;;;;;4.37;3.65;;;;;;;2.97;97.42;100442.41;1708006;81;21120;-68
2022/01/25 05:50:01;;;;;;;5.30;3.40;;;;;;;2.98;97.45;100444.14;1719683;81;20943;-68
2022/01/25 05:52:28;;;;;;;7.33;3.67;;;;;;;2.99;97.50;100440.69;1718306;81;21583;-68
2022/01/25 05:54:56;;;;;;;6.63;4.43;;;;;;;2.99;97.31;100448.42;1718972;81;21088;-68
2022/01/25 05:57:23;;;;;;;5.62;3.30;;;;;;;2.98;97.34;100442.41;1717634;81;21737;-69
2022/01/25 05:59:50;;;;;;;5.53;4.13;;;;;;;3.00;97.35;100439.84;1722138;81;21180;-68
2022/01/25 06:02:19;;;;;;;5.07;3.47;;;;;;;2.98;97.15;100446.72;1716839;81;21100;-68
2022/01/25 06:04:46;;;;;;;6.12;4.28;;;;;;;2.99;97.34;100451.00;1717541;81;21559;-68
2022/01/25 06:07:12;;;;;;;5.78;4.10;;;;;;;3.02;97.29;100453.56;1719224;81;21156;-68
2022/01/25 06:09:41;;;;;;;5.20;4.05;;;;;;;3.05;97.30;100447.98;1716245;81;22333;-69
2022/01/25 06:12:09;;;;;;;5.85;4.55;;;;;;;3.03;97.36;100455.30;1719739;81;22279;-67
2022/01/25 06:14:37;;;;;;;7.20;4.40;;;;;;;3.04;97.38;100444.10;1721412;81;21027;-68
2022/01/25 06:17:04;;;;;;;4.83;4.05;;;;;;;2.98;97.69;100446.72;1718921;81;22263;-68
2022/01/25 06:19:31;;;;;;;4.60;3.65;;;;;;;3.00;97.63;100455.31;1721567;81;21205;-70
2022/01/25 06:21:58;;;;;;;4.60;3.52;;;;;;;3.00;97.88;100457.90;1719395;80;21102;-70
2022/01/25 06:24:24;;;;;;;6.00;3.98;;;;;;;3.00;97.78;100463.91;1714180;81;21057;-68
2022/01/25 06:26:51;;;;;;;6.65;3.75;;;;;;;2.99;97.63;100458.74;1742129;80;21101;-67
2022/01/25 06:29:19;;;;;;;5.35;3.85;;;;;;;3.01;97.87;100449.28;1751207;80;21038;-68
2022/01/25 06:31:50;;;;;;;4.75;3.52;;;;;;;2.99;97.84;100453.58;1750839;80;21015;-68
2022/01/25 06:34:16;;;;;;;7.40;4.47;;;;;;;3.02;97.78;100463.89;1747047;80;22345;-68
2022/01/25 06:36:43;;;;;;;5.92;4.30;;;;;;;3.04;97.79;100469.47;1754924;80;21084;-68
2022/01/25 06:39:09;;;;;;;5.00;3.98;;;;;;;3.06;97.76;100460.44;1744076;80;21097;-68
2022/01/25 06:41:37;;;;;;;4.83;4.10;;;;;;;3.05;97.85;100462.58;1742926;80;22159;-68
2022/01/25 06:44:05;;;;;;;4.67;4.05;;;;;;;3.05;97.85;100462.58;1739843;80;22260;-69
2022/01/25 06:46:32;;;;;;;3.95;3.42;;;;;;;3.06;97.82;100460.44;1749035;80;21819;-68
2022/01/25 06:48:59;;;;;;;4.67;4.03;;;;;;;3.06;97.97;100447.55;1740929;80;21081;-69
2022/01/25 06:51:29;;;;;;;6.33;3.77;;;;;;;3.09;97.78;100444.95;1734886;80;21060;-68
2022/01/25 06:53:55;;;;;;;3.90;3.20;;;;;;;3.06;97.81;100442.38;1729433;80;21130;-69
2022/01/25 06:56:24;;;;;;;4.37;3.55;;;;;;;3.10;97.80;100438.91;1734073;80;21069;-69
2022/01/25 06:58:51;;;;;;;5.50;3.50;;;;;;;3.15;97.77;100442.33;1731717;80;21495;-69
2022/01/25 07:01:18;;;;;;;5.30;3.50;;;;;;;3.12;97.79;100436.75;1727206;81;21106;-70
2022/01/25 07:03:45;;;;;;;4.83;3.70;;;;;;;3.10;97.88;100431.16;1730373;80;21679;-70
2022/01/25 07:06:12;;;;;;;5.05;3.17;;;;;;;3.13;97.92;100438.89;1725813;80;21437;-70
2022/01/25 07:08:38;;;;;;;5.90;3.60;;;;;;;3.14;97.84;100435.45;1725326;80;20990;-69
2022/01/25 07:11:05;;;;;;;5.92;3.37;;;;;;;3.16;97.84;100425.97;1725883;80;22359;-69
2022/01/25 07:13:31;;;;;;;4.28;3.10;;;;;;;3.14;97.91;100436.75;1728474;81;21094;-70
2022/01/25 07:15:58;;;;;;;4.33;3.22;;;;;;;3.18;97.95;100439.72;1726449;81;21066;-69
2022/01/25 07:18:25;;;;;;;4.87;3.83;;;;;;;3.13;98.07;100441.47;1724385;80;21018;-69
2022/01/25 07:20:52;;;;;;;7.25;3.35;;;;;;;3.17;97.83;100437.17;1726573;81;21595;-70
2022/01/25 07:23:18;;;;;;;4.37;3.55;;;;;;;3.23;97.93;100437.98;1724573;81;21227;-69
2022/01/25 07:25:45;;;;;;;7.60;3.30;;;;;;;3.30;97.82;100444.80;1723730;81;21612;-69
2022/01/25 07:28:12;;;;;;;4.37;3.47;;;;;;;3.31;97.54;100451.70;1729663;81;22078;-69
2022/01/25 07:30:38;;;;;;;5.20;3.37;;;;;;;3.31;97.57;100447.83;1728780;81;20989;-69
2022/01/25 07:33:07;;;;;;;4.58;3.02;;;;;;;3.34;97.46;100449.09;1720551;81;21014;-70
2022/01/25 07:35:35;;;;;;;3.90;3.50;;;;;;;3.32;97.56;100437.91;1729748;80;21084;-69
2022/01/25 07:38:02;;;;;;;4.47;3.30;;;;;;;3.34;97.57;100436.19;1727687;81;22013;-69
2022/01/25 07:40:32;;;;;;;4.83;3.00;;;;;;;3.35;97.46;100430.15;1726998;81;22230;-69
2022/01/25 07:43:01;;;;;;;5.75;3.10;;;;;;;3.41;97.38;100425.82;1723711;81;21091;-69
2022/01/25 07:45:34;;;;;;;3.08;2.70;;;;;;;3.41;97.47;100440.02;1721482;79;21166;-69
2022/01/25 07:47:57;;;;;;;4.08;2.95;;;;;;;3.40;97.46;100435.73;1723390;80;21141;-69
2022/01/25 07:50:23;;;;;;;5.05;3.52;;;;;;;3.43;97.37;100430.55;1727318;80;21041;-69
2022/01/25 07:52:50;;;;;;;5.12;3.62;;;;;;;3.45;97.32;100437.86;1730428;81;21052;-68
2022/01/25 07:55:17;;;;;;;5.37;3.27;;;;;;;3.41;97.26;100430.98;1720276;80;21094;-69
2022/01/25 07:57:45;;;;;;;4.87;3.50;;;;;;;3.47;97.55;100437.39;1704048;81;21121;-70
2022/01/25 08:00:13;;;;;;;5.90;3.47;;;;;;;3.50;97.49;100430.91;1723791;81;21416;-69
2022/01/25 08:02:46;;;;;;;5.85;3.55;;;;;;;3.52;97.26;100436.92;1710456;81;21165;-70
2022/01/25 08:05:16;;;;;;;6.42;4.25;;;;;;;3.56;97.21;100436.05;1706101;82;21192;-69
2022/01/25 08:07:43;;;;;;;4.58;3.77;;;;;;;3.52;97.08;100433.05;1727011;81;21109;-70
2022/01/25 08:10:11;;;;;;;4.83;3.72;;;;;;;3.50;97.23;100438.66;1727277;81;21126;-69
2022/01/25 08:12:38;;;;;;;5.22;3.85;;;;;;;3.54;97.14;100451.98;1730663;81;21064;-69
2022/01/25 08:15:08;;;;;;;6.05;3.95;;;;;;;3.53;97.15;100446.41;1724643;81;21137;-70
2022/01/25 08:17:35;;;;;;;6.20;3.45;;;;;;;3.52;97.10;100447.25;1730276;79;21049;-69
2022/01/25 08:20:03;;;;;;;6.10;3.58;;;;;;;3.53;97.17;100454.16;1702932;81;21118;-69
2022/01/25 08:22:30;;;;;;;5.70;3.60;;;;;;;3.56;97.10;100461.88;1684495;83;20995;-70
2022/01/25 08:24:57;;;;;;;6.47;3.77;;;;;;;3.58;97.17;100463.59;1700409;82;21523;-69
2022/01/25 08:27:24;;;;;;;6.80;4.00;;;;;;;3.60;96.98;100464.84;1726386;81;21040;-70
2022/01/25 08:29:53;;;;;;;5.10;3.65;;;;;;;3.65;96.91;100461.80;1737017;80;26114;-70
2022/01/25 08:32:24;;;;;;;5.92;3.15;;;;;;;3.50;97.83;100459.31;1708721;81;21740;-70
2022/01/25 08:34:51;;;;;;;4.78;3.50;;;;;;;3.62;97.47;100454.08;1733554;81;21159;-69
2022/01/25 08:37:18;;;;;;;6.50;3.70;;;;;;;3.60;97.25;100455.81;1725694;81;21166;-68
2022/01/25 08:39:45;;;;;;;8.70;3.55;;;;;;;3.59;97.19;100456.69;1739508;80;21063;-68
2022/01/25 08:42:15;;;;;;;5.75;3.65;;;;;;;3.56;97.22;100451.55;1723790;81;21047;-68
2022/01/25 08:44:49;;;;;;;5.00;3.72;;;;;;;3.54;97.32;100458.00;1728476;81;21167;-71
2022/01/25 08:47:18;;;;;;;5.35;3.40;;;;;;;3.53;97.25;100459.32;1724918;80;21641;-69
2022/01/25 08:49:48;;;;;;;5.33;3.58;;;;;;;3.54;97.27;100448.11;1708743;80;21099;-69
2022/01/25 08:52:20;;;;;;;6.90;4.00;;;;;;;3.46;97.85;100452.47;1728981;80;21113;-69
2022/01/25 08:54:51;;;;;;;5.33;3.92;;;;;;;3.42;98.11;100459.79;1681167;81;21169;-68
2022/01/25 08:57:24;;;;;;;3.47;3.12;;;;;;;3.44;98.24;100449.03;1700059;81;21069;-68
2022/01/25 08:59:53;;;;;;;6.30;3.70;;;;;;;3.46;98.16;100444.72;1673277;82;21196;-69
2022/01/25 09:02:21;;;;;;;4.25;2.92;;;;;;;3.47;98.20;100442.55;1687804;81;21156;-69
2022/01/25 09:04:48;;;;;;;5.30;3.50;;;;;;;3.48;98.40;100434.81;1689755;82;21239;-68
2022/01/25 09:07:17;;;;;;;4.95;3.55;;;;;;;3.47;98.54;100441.27;1733484;79;21438;-70
2022/01/25 09:09:47;;;;;;;6.58;3.12;;;;;;;3.47;98.46;100433.52;1727936;78;21001;-69
2022/01/25 09:12:17;;;;;;;5.42;3.70;;;;;;;3.49;98.50;100438.25;1732318;78;21574;-71
2022/01/25 09:14:47;;;;;;;5.03;3.77;;;;;;;3.51;98.51;100446.84;1702858;81;21101;-70
2022/01/25 09:17:19;;;;;;;7.37;4.17;;;;;;;3.54;98.36;100442.95;1725288;78;21169;-70
2022/01/25 09:20:00;;;;;;;;;;;;;;;;;;;;;
2022/01/25 09:22:41;;;;;;;6.90;3.62;;;;;;;3.55;98.19;100458.41;1681510;82;21061;-69
2022/01/25 09:25:12;;;;;;;7.72;4.72;;;;;;;3.57;98.40;100450.67;1685029;82;21471;-71
2022/01/25 09:27:43;;;;;;;6.97;3.85;;;;;;;3.59;98.14;100448.94;1688035;82;21120;-69
2022/01/25 09:30:12;;;;;;;5.80;3.55;;;;;;;3.56;98.25;100459.30;1648136;82;21423;-69
2022/01/25 09:32:43;;;;;;;5.25;3.60;;;;;;;3.50;98.80;100464.06;1685372;82;21147;-69
2022/01/25 09:35:15;;;;;;;3.87;3.40;;;;;;;3.47;98.86;100465.79;1657413;82;21141;-70
2022/01/25 09:37:45;;;;;;;9.00;4.10;;;;;;;3.44;99.29;100472.27;1690499;82;21105;-70
2022/01/25 09:40:18;;;;;;;7.58;4.60;;;;;;;3.42;99.23;100461.08;1703750;82;21575;-69
2022/01/25 09:42:51;;;;;;;5.20;4.00;;;;;;;3.47;99.09;100456.75;1689249;81;22194;-69
2022/01/25 09:45:19;;;;;;;7.10;3.62;;;;;;;3.51;99.28;100454.59;1680484;83;21069;-71
2022/01/25 09:47:55;;;;;;;7.22;4.25;;;;;;;3.49;99.51;100455.03;1674122;84;21060;-69
2022/01/25 09:50:27;;;;;;;6.25;4.35;;;;;;;3.49;99.67;100453.73;1677512;82;21799;-69
2022/01/25 09:52:58;;;;;;;10.30;5.45;;;;;;;3.49;99.75;100456.31;1636464;85;22073;-70
2022/01/25 09:55:31;;;;;;;7.97;5.17;;;;;;;3.68;99.46;100458.34;1636983;85;21149;-71
2022/01/25 09:58:02;;;;;;;7.90;4.72;;;;;;;3.77;99.30;100459.12;1623776;85;21151;-70
2022/01/25 10:00:34;;;;;;;6.22;4.47;;;;;;;3.83;99.39;100465.11;1686750;82;21518;-69
2022/01/25 10:03:12;;;;;;;7.12;4.50;;;;;;;3.76;99.53;100465.16;1688747;82;21152;-70
2022/01/25 10:05:42;;;;;;;6.95;4.33;;;;;;;3.85;99.50;100455.63;1696653;82;21637;-70
2022/01/25 10:08:26;;;;;;;7.45;4.62;;;;;;;3.79;99.60;100467.72;1652931;82;22046;-69
2022/01/25 10:11:03;;;;;;;7.05;4.45;;;;;;;4.02;100.00;100458.92;1665910;82;21129;-70
2022/01/25 10:13:42;;;;;;;8.63;5.35;;;;;;;4.29;99.71;100455.23;1662463;84;21158;-70
2022/01/25 10:16:21;;;;;;;5.95;4.28;;;;;;;4.44;99.19;100449.89;1675647;83;21038;-70
2022/01/25 10:19:05;;;;;;;;;;;;;;;4.46;98.56;100454.63;1655017;83;21108;-69
2022/01/25 10:24:24;;;;;;;8.30;4.70;;;;;;;4.50;98.35;100445.09;1665333;85;21111;-70
2022/01/25 10:26:58;;;;;;;6.70;3.90;;;;;;;4.51;98.28;100432.61;1637272;85;21082;-69
2022/01/25 10:29:32;;;;;;;8.80;4.45;;;;;;;4.49;98.47;100440.36;1631182;85;21086;-69
2022/01/25 10:32:12;;;;;;;7.85;4.67;;;;;;;4.52;98.39;100435.59;1640774;85;21728;-69
2022/01/25 10:34:52;;;;;;;9.08;3.90;;;;;;;4.48;98.77;100432.61;1656840;84;21357;-69
2022/01/25 10:37:24;;;;;;;10.32;4.40;;;;;;;4.52;98.89;100425.25;1658789;84;21146;-69
2022/01/25 10:39:55;;;;;;;6.15;3.60;;;;;;;4.54;98.54;100419.63;1696296;82;22074;-69
2022/01/25 10:42:35;;;;;;;8.88;4.70;;;;;;;4.53;98.50;100423.08;1698121;82;21131;-69
2022/01/25 10:45:17;;;;;;;7.55;4.47;;;;;;;4.56;98.39;100423.48;1699596;82;21126;-70
2022/01/25 10:48:06;;;;;;;8.98;4.47;;;;;;;4.56;98.54;100416.57;1702035;82;22618;-69
2022/01/25 10:50:42;;;;;;;12.45;4.10;;;;;;;4.74;97.94;100417.25;1670724;84;21128;-70
2022/01/25 10:53:37;;;;;;;8.38;4.28;;;;;;;4.81;97.69;100426.19;1672722;83;21032;-68
2022/01/25 10:56:08;;;;;;;6.95;4.30;;;;;;;4.74;97.24;100419.40;1652569;85;21148;-70
2022/01/25 10:58:41;;;;;;;7.80;4.50;;;;;;;4.76;97.46;100409.02;1652383;84;21164;-68
2022/01/25 11:01:10;;;;;;;7.15;4.10;;;;;;;4.77;97.24;100418.51;1597854;86;21761;-70
2022/01/25 11:03:44;;;;;;;8.38;4.72;;;;;;;4.66;96.91;100410.42;1617093;86;22289;-69
2022/01/25 11:06:19;;;;;;;7.40;3.90;;;;;;;4.61;97.31;100408.33;1609626;87;21054;-70
2022/01/25 11:08:50;;;;;;;8.15;4.30;;;;;;;4.47;97.64;100405.90;1611380;87;21145;-68
2022/01/25 11:11:28;;;;;;;7.00;3.95;;;;;;;4.52;97.74;100399.39;1653370;85;21189;-67
2022/01/25 11:14:00;;;;;;;11.12;4.67;;;;;;;4.39;97.43;100402.98;1650181;85;21101;-67
2022/01/25 11:16:24;;;;;;;12.13;4.83;;;;;;;4.37;97.84;100404.72;1652156;84;21033;-68
2022/01/25 11:18:51;;;;;;;7.25;4.33;;;;;;;4.39;98.01;100410.30;1650804;85;21117;-69
2022/01/25 11:21:21;;;;;;;8.70;3.95;;;;;;;4.39;97.91;100401.69;1637922;85;21058;-68
2022/01/25 11:24:03;;;;;;;10.18;4.85;;;;;;;4.37;97.82;100403.43;1614230;86;21128;-68
2022/01/25 11:26:33;;;;;;;9.13;4.55;;;;;;;4.37;98.19;100404.72;1618340;86;21198;-68
2022/01/25 11:29:02;;;;;;;8.65;4.15;;;;;;;4.35;98.25;100403.46;1609549;86;21089;-67
2022/01/25 11:31:29;;;;;;;11.15;4.47;;;;;;;4.36;98.23;100396.55;1616017;86;22354;-67
2022/01/25 11:34:00;;;;;;;12.60;4.67;;;;;;;4.39;98.42;100401.69;1619587;86;21141;-68
2022/01/25 11:36:27;;;;;;;9.63;4.53;;;;;;;4.44;98.38;100403.35;1619068;86;21523;-68
2022/01/25 11:38:55;;;;;;;9.20;4.87;;;;;;;4.52;98.33;100400.69;1587883;87;21970;-68
2022/01/25 11:41:24;;;;;;;9.78;3.85;;;;;;;4.50;98.01;100392.08;1611817;87;21411;-68
2022/01/25 11:44:16;;;;;;;8.95;3.75;;;;;;;4.59;98.15;100398.43;1621769;86;21600;-70
2022/01/25 11:48:23;;;;;;;14.00;6.55;;;;;;;4.80;97.77;100393.89;1814476;77;22707;-71
2022/01/25 11:50:50;;;;;;;21.45;5.97;;;;;;;4.87;98.06;100400.67;1801706;78;21024;-69
2022/01/25 11:53:23;;;;;;;14.73;4.63;;;;;;;4.96;97.80;100396.70;1798535;78;22414;-68
2022/01/25 11:55:55;;;;;;;10.82;4.87;;;;;;;5.10;97.15;100392.18;1799083;78;21105;-68
2022/01/25 11:58:27;;;;;;;8.93;4.50;;;;;;;5.14;97.09;100386.06;1810271;77;21260;-68
2022/01/25 12:01:03;;;;;;;9.83;4.20;;;;;;;5.01;96.81;100389.70;1796751;78;22197;-67
2022/01/25 12:03:35;;;;;;;8.85;4.10;;;;;;;4.97;96.99;100395.80;1811254;78;21076;-68
2022/01/25 12:06:13;;;;;;;10.08;4.50;;;;;;;5.00;96.92;100395.77;1806885;77;21105;-69
2022/01/25 12:11:40;;;;;;;8.95;4.40;;;;;;;5.13;96.47;100389.55;1809592;77;21042;-68
2022/01/25 12:14:33;;;;;;;9.90;4.10;;;;;;;5.02;96.64;100405.66;1804441;77;21175;-68
2022/01/25 12:17:07;;;;;;;9.80;3.85;;;;;;;4.92;96.58;100402.77;1800379;78;21090;-68
2022/01/25 12:19:58;;;;;;;9.85;3.83;;;;;;;4.84;96.56;100395.55;1807280;78;21091;-69
2022/01/25 12:22:36;;;;;;;12.75;4.03;;;;;;;4.80;96.62;100410.70;1731779;80;21151;-69
2022/01/25 12:25:33;;;;;;;15.93;4.53;;;;;;;4.78;96.27;100407.27;1738078;81;22067;-68
2022/01/25 12:28:01;;;;;;;8.20;3.90;;;;;;;4.62;96.50;100402.30;1734269;81;21083;-68
2022/01/25 12:30:51;;;;;;;9.20;4.53;;;;;;;4.60;96.53;100405.78;1731549;81;22677;-68
2022/01/25 12:33:30;;;;;;;12.03;4.40;;;;;;;4.48;96.83;100406.75;1737559;80;21175;-67
2022/01/25 12:36:03;;;;;;;12.35;4.42;;;;;;;4.44;97.20;100411.55;1701281;82;21553;-68
2022/01/25 12:38:43;;;;;;;9.88;4.47;;;;;;;4.36;96.94;100418.09;1737186;80;21049;-68
2022/01/25 12:41:27;;;;;;;10.03;3.85;;;;;;;4.37;97.08;100403.02;1732292;80;21096;-68
2022/01/25 12:43:59;;;;;;;9.25;3.65;;;;;;;4.43;97.08;100404.67;1734458;81;22137;-69
2022/01/25 12:46:31;;;;;;;9.63;3.60;;;;;;;4.43;96.90;100408.55;1736599;81;21112;-68
2022/01/25 12:49:02;;;;;;;9.95;3.75;;;;;;;4.38;97.01;100416.35;1734426;81;21099;-69
2022/01/25 12:51:36;;;;;;;11.30;3.90;;;;;;;4.38;96.65;100411.62;1734019;80;21078;-69
2022/01/25 12:54:10;;;;;;;9.43;3.58;;;;;;;4.33;96.46;100399.18;1687531;81;21081;-68
2022/01/25 12:56:45;;;;;;;8.60;3.20;;;;;;;4.47;96.68;100399.87;1735113;80;21694;-68
2022/01/25 12:59:22;;;;;;;6.78;3.70;;;;;;;4.42;96.70;100403.80;1734372;81;21108;-68
2022/01/25 13:01:56;;;;;;;12.55;3.52;;;;;;;4.48;96.84;100398.99;1736983;80;21093;-69
2022/01/25 13:04:18;;;;;;;6.47;3.83;;;;;;;4.47;96.94;100394.70;1697413;82;21394;-68
2022/01/25 13:06:52;;;;;;;9.58;3.22;;;;;;;4.65;97.11;100402.26;1700673;82;21089;-69
2022/01/25 13:09:33;;;;;;;11.48;3.05;;;;;;;4.57;96.43;100406.66;1708083;82;21716;-68
2022/01/25 13:14:50;;;;;;;5.65;3.27;;;;;;;4.46;96.28;100400.77;1736850;80;22034;-68
2022/01/25 13:17:21;;;;;;;9.00;3.87;;;;;;;4.56;96.86;100405.38;1731488;81;21572;-68
2022/01/25 13:19:57;;;;;;;8.45;3.35;;;;;;;4.60;96.42;100398.87;1735916;80;21501;-69